createdAt,value
2018-11-28T00:04:24.771Z,60.03
2018-11-28T00:09:44.346Z,59.70
2018-11-28T00:14:48.951Z,56.03
2018-11-28T00:19:53.608Z,66.50
2018-11-28T00:24:58.299Z,55.77
2018-11-28T00:30:02.983Z,61.60
2018-11-28T00:35:08.962Z,61.80
2018-11-28T00:40:14.566Z,58.93
2018-11-28T00:45:21.026Z,64.17
2018-11-28T00:50:26.777Z,58.57
2018-11-28T00:55:31.443Z,59.63
2018-11-28T01:00:36.145Z,58.63
2018-11-28T01:05:40.837Z,54.30
2018-11-28T01:10:45.516Z,45.33
2018-11-28T01:15:50.175Z,50.10
2018-11-28T01:20:54.873Z,56.90
2018-11-28T01:25:59.534Z,52.97
2018-11-28T01:31:04.262Z,53.73
2018-11-28T01:36:09.042Z,49.50
2018-11-28T01:41:13.745Z,46.93
2018-11-28T01:46:18.475Z,58.13
2018-11-28T01:51:23.150Z,54.30
2018-11-28T01:56:27.811Z,58.60
2018-11-28T02:01:32.499Z,48.10
2018-11-28T02:06:37.259Z,54.13
2018-11-28T02:11:41.944Z,52.20
2018-11-28T02:16:46.635Z,52.67
2018-11-28T02:21:51.380Z,53.17
2018-11-28T02:26:56.027Z,53.47
2018-11-28T02:32:01.782Z,55.90
2018-11-28T02:37:07.166Z,54.20
2018-11-28T02:42:12.805Z,42.97
2018-11-28T02:47:17.997Z,49.90
2018-11-28T02:52:24.032Z,49.77
2018-11-28T02:57:29.145Z,45.17
2018-11-28T03:02:34.111Z,40.30
2018-11-28T03:07:39.060Z,44.77
2018-11-28T03:12:44.701Z,44.03
2018-11-28T03:17:50.536Z,43.17
2018-11-28T03:22:55.543Z,43.10
2018-11-28T03:28:00.427Z,42.27
2018-11-28T03:33:05.853Z,41.07
2018-11-28T03:38:10.789Z,39.20
2018-11-28T03:43:23.621Z,43.47
2018-11-28T03:48:33.071Z,42.10
2018-11-28T03:53:39.022Z,35.90
2018-11-28T03:58:43.973Z,41.07
2018-11-28T04:03:52.173Z,35.33
2018-11-28T04:08:57.924Z,35.23
2018-11-28T04:14:05.317Z,40.67
2018-11-28T04:19:12.144Z,40.90
2018-11-28T04:24:18.865Z,35.33
2018-11-28T04:29:24.254Z,40.10
2018-11-28T04:34:30.591Z,41.37
2018-11-28T04:39:35.200Z,48.97
2018-11-28T04:44:40.131Z,47.53
2018-11-28T04:49:45.803Z,41.97
2018-11-28T05:00:41.528Z,45.00
2018-11-28T05:11:04.341Z,49.50
2018-11-28T05:16:08.978Z,47.90
2018-11-28T05:21:13.733Z,45.57
2018-11-28T05:26:19.229Z,41.33
2018-11-28T05:31:23.844Z,45.23
2018-11-28T05:36:28.487Z,43.17
2018-11-28T05:41:33.090Z,36.80
2018-11-28T05:46:37.637Z,38.07
2018-11-28T05:51:43.590Z,36.43
2018-11-28T05:56:49.617Z,35.37
2018-11-28T06:01:54.185Z,38.77
2018-11-28T06:06:58.766Z,36.43
2018-11-28T06:12:03.347Z,38.43
2018-11-28T06:17:07.855Z,39.63
2018-11-28T06:22:12.359Z,42.77
2018-11-28T06:27:16.856Z,34.40
2018-11-28T06:32:21.378Z,36.43
2018-11-28T06:37:26.041Z,38.13
2018-11-28T06:42:30.559Z,34.33
2018-11-28T06:47:35.203Z,39.37
2018-11-28T06:52:39.696Z,37.43
2018-11-28T06:57:44.446Z,44.73
2018-11-28T07:02:49.899Z,40.53
2018-11-28T07:07:54.439Z,37.23
2018-11-28T07:12:58.983Z,35.30
2018-11-28T07:18:14.403Z,38.40
2018-11-28T07:23:18.893Z,36.33
2018-11-28T07:28:23.499Z,38.33
2018-11-28T07:33:27.996Z,40.67
2018-11-28T07:38:32.512Z,49.03
2018-11-28T07:43:37.147Z,52.77
2018-11-28T07:48:41.670Z,60.93
2018-11-28T07:53:46.171Z,55.07
2018-11-28T07:58:50.703Z,62.47
2018-11-28T08:03:55.224Z,55.17
2018-11-28T08:08:59.723Z,39.87
2018-11-28T08:14:04.214Z,29.60
2018-11-28T08:19:08.752Z,28.87
2018-11-28T08:24:13.298Z,40.80
2018-11-28T08:29:17.871Z,33.33
2018-11-28T08:34:23.590Z,35.43
2018-11-28T08:39:27.018Z,43.00
2018-11-28T08:44:31.567Z,38.80
2018-11-28T08:49:36.130Z,41.67
2018-11-28T08:54:40.635Z,46.87
2018-11-28T08:59:45.212Z,41.63
2018-11-28T09:04:49.743Z,38.13
2018-11-28T09:09:54.251Z,42.27
2018-11-28T09:14:58.798Z,44.80
2018-11-28T09:20:03.342Z,49.33
2018-11-28T09:25:12.244Z,43.33
2018-11-28T09:30:18.503Z,42.77
2018-11-28T09:35:23.049Z,36.27
2018-11-28T09:40:27.925Z,45.27
2018-11-28T09:45:32.424Z,40.57
2018-11-28T09:50:36.995Z,41.33
2018-11-28T09:55:41.524Z,56.23
2018-11-28T10:00:46.032Z,52.50
2018-11-28T10:05:50.593Z,47.50
2018-11-28T10:10:55.088Z,49.10
2018-11-28T10:16:00.214Z,41.20
2018-11-28T10:21:04.191Z,41.73
2018-11-28T10:26:08.700Z,51.20
2018-11-28T10:31:13.221Z,50.07
2018-11-28T10:36:17.814Z,49.73
2018-11-28T10:41:22.351Z,41.13
2018-11-28T10:46:27.617Z,36.30
2018-11-28T10:51:31.431Z,43.53
2018-11-28T10:56:35.950Z,44.30
2018-11-28T11:01:45.734Z,40.27
2018-11-28T11:06:55.252Z,45.03
2018-11-28T11:12:04.895Z,43.13
2018-11-28T11:17:09.422Z,40.73
2018-11-28T11:22:13.966Z,40.37
2018-11-28T11:27:18.522Z,37.40
2018-11-28T11:32:23.076Z,32.17
2018-11-28T11:37:27.578Z,33.50
2018-11-28T11:42:32.099Z,29.87
2018-11-28T11:47:36.616Z,25.10
2018-11-28T11:52:41.456Z,24.90
2018-11-28T11:57:46.095Z,28.13
2018-11-28T12:03:02.255Z,26.27
2018-11-28T12:08:07.453Z,25.90
2018-11-28T12:13:12.096Z,22.57
2018-11-28T12:18:16.847Z,22.90
2018-11-28T12:23:21.530Z,16.03
2018-11-28T12:28:26.188Z,17.67
2018-11-28T12:33:30.874Z,16.13
2018-11-28T12:38:35.564Z,17.17
2018-11-28T12:43:40.227Z,17.60
2018-11-28T12:48:44.872Z,19.93
2018-11-28T12:53:49.534Z,16.57
2018-11-28T12:58:54.153Z,16.10
2018-11-28T13:03:58.793Z,18.37
2018-11-28T13:09:03.414Z,15.67
2018-11-28T13:14:07.936Z,17.63
2018-11-28T13:19:12.466Z,18.67
2018-11-28T13:24:16.994Z,15.87
2018-11-28T13:29:21.558Z,15.83
2018-11-28T13:34:26.097Z,21.47
2018-11-28T13:39:30.593Z,21.03
2018-11-28T13:44:35.099Z,24.33
2018-11-28T13:49:39.702Z,21.37
2018-11-28T13:55:37.812Z,24.67
2018-11-28T13:59:48.771Z,24.10
2018-11-28T14:04:53.294Z,24.80
2018-11-28T14:09:57.814Z,17.70
2018-11-28T14:15:02.372Z,20.80
2018-11-28T14:20:08.683Z,21.30
2018-11-28T14:25:14.032Z,23.00
2018-11-28T14:30:19.624Z,49.10
2018-11-28T14:35:24.120Z,54.80
2018-11-28T14:40:28.619Z,74.33
2018-11-28T14:45:33.482Z,31.37
2018-11-28T14:50:38.218Z,24.80
2018-11-28T14:55:42.746Z,21.23
2018-11-28T15:00:47.396Z,16.80
2018-11-28T15:06:29.927Z,17.50
2018-11-28T15:11:34.491Z,21.77
2018-11-28T15:16:39.067Z,24.13
2018-11-28T15:21:43.544Z,15.63
2018-11-28T15:26:48.155Z,18.83
2018-11-28T15:31:53.494Z,19.37
2018-11-28T15:36:58.142Z,17.97
2018-11-28T15:42:02.629Z,19.90
2018-11-28T15:47:07.096Z,19.73
2018-11-28T15:52:11.548Z,26.60
2018-11-28T15:57:16.310Z,21.20
2018-11-28T16:02:20.837Z,22.07
2018-11-28T16:07:25.305Z,25.50
2018-11-28T16:12:29.773Z,26.47
2018-11-28T16:17:34.242Z,76.17
2018-11-28T16:22:38.738Z,34.63
2018-11-28T16:27:43.248Z,46.97
2018-11-28T16:32:49.399Z,34.03
2018-11-28T16:37:53.949Z,36.57
2018-11-28T16:42:58.420Z,30.07
2018-11-28T16:48:02.939Z,26.97
2018-11-28T16:53:07.635Z,25.53
2018-11-28T16:58:12.373Z,38.27
2018-11-28T17:03:16.978Z,38.80
2018-11-28T17:08:21.507Z,62.40
2018-11-28T17:13:30.204Z,54.37
2018-11-28T17:18:34.787Z,50.97
2018-11-28T17:23:39.491Z,40.80
2018-11-28T17:28:43.975Z,41.30
2018-11-28T17:33:54.087Z,45.07
2018-11-28T17:38:58.589Z,44.13
2018-11-28T17:44:03.102Z,41.30
2018-11-28T17:49:12.351Z,41.00
2018-11-28T18:21:25.721Z,35.50
2018-11-28T18:26:30.777Z,36.30
2018-11-28T18:31:35.318Z,33.47
2018-11-28T18:36:39.888Z,35.33
2018-11-28T18:41:45.052Z,33.07
2018-11-28T18:46:53.420Z,36.77
2018-11-28T18:51:58.188Z,43.47
2018-11-28T18:57:07.774Z,53.07
2018-11-28T19:02:12.755Z,50.90
2018-11-28T19:07:18.162Z,47.13
2018-11-28T19:12:23.933Z,44.97
2018-11-28T19:17:31.190Z,62.50
2018-11-28T19:22:36.020Z,53.17
2018-11-28T19:27:41.240Z,49.27
2018-11-28T19:32:51.526Z,57.97
2018-11-28T19:37:59.750Z,52.40
2018-11-28T19:43:06.631Z,65.10
2018-11-28T19:51:44.923Z,55.67
2018-11-28T19:56:56.123Z,83.43
2018-11-28T20:02:03.306Z,77.77
2018-11-28T20:07:12.300Z,68.57
2018-11-28T20:12:19.385Z,65.17
2018-11-28T20:17:25.911Z,53.50
2018-11-28T20:22:35.468Z,82.07
2018-11-28T20:27:41.746Z,62.97
2018-11-28T20:32:55.361Z,49.03
2018-11-28T20:38:00.338Z,50.63
2018-11-28T20:43:08.292Z,48.93
2018-11-28T20:48:13.202Z,47.17
2018-11-28T20:53:19.565Z,36.17
2018-11-28T20:58:25.073Z,46.40
2018-11-28T21:03:30.326Z,42.53
2018-11-28T21:08:35.436Z,41.57
2018-11-28T21:13:41.636Z,41.67
2018-11-28T21:18:49.227Z,47.03
2018-11-28T21:23:54.217Z,44.43
2018-11-28T21:28:59.096Z,39.07
2018-11-28T21:34:04.000Z,39.83
2018-11-28T21:39:10.110Z,52.30
2018-11-28T21:44:14.807Z,51.47
2018-11-28T21:49:19.507Z,64.60
2018-11-28T21:54:24.105Z,61.77
2018-11-28T21:59:28.772Z,60.40
2018-11-28T22:04:33.638Z,65.37
2018-11-28T22:09:39.622Z,59.97
2018-11-28T22:14:44.296Z,60.40
2018-11-28T22:19:49.018Z,53.70
2018-11-28T22:24:53.661Z,59.00
2018-11-28T22:29:58.379Z,60.47
2018-11-28T22:35:03.016Z,55.73
2018-11-28T22:40:11.194Z,53.57
2018-11-28T22:45:22.008Z,51.13
2018-11-28T22:50:26.722Z,50.57
2018-11-28T22:55:31.479Z,47.33
2018-11-28T23:00:41.415Z,43.23
2018-11-28T23:05:52.969Z,41.37
2018-11-28T23:10:57.606Z,37.57
2018-11-28T23:16:02.271Z,36.07
2018-11-28T23:21:07.057Z,39.90
2018-11-28T23:26:11.660Z,32.93
2018-11-28T23:31:16.300Z,32.60
2018-11-28T23:36:20.879Z,33.90
2018-11-28T23:41:25.563Z,31.07
2018-11-28T23:46:30.206Z,34.33
2018-11-28T23:51:34.824Z,33.43
2018-11-28T23:56:39.475Z,33.57
